sensor_id;sensor_type;location;lat;lon;timestamp;P1;durP1;ratioP1;P2;durP2;ratioP2
2620;SDS011;1320;48.128;11.592;2022-12-11T00:00:50;13.13;;;8.68;;
2620;SDS011;1320;48.128;11.592;2022-12-11T00:03:16;10.20;;;6.78;;
2620;SDS011;1320;48.128;11.592;2022-12-11T00:05:42;15.10;;;8.88;;
2620;SDS011;1320;48.128;11.592;2022-12-11T00:08:09;14.27;;;9.52;;
2620;SDS011;1320;48.128;11.592;2022-12-11T00:10:35;10.77;;;7.70;;
2620;SDS011;1320;48.128;11.592;2022-12-11T00:13:01;17.87;;;10.67;;
2620;SDS011;1320;48.128;11.592;2022-12-11T00:15:27;13.98;;;7.85;;
2620;SDS011;1320;48.128;11.592;2022-12-11T00:17:53;14.30;;;6.00;;
2620;SDS011;1320;48.128;11.592;2022-12-11T00:20:19;11.20;;;7.57;;
2620;SDS011;1320;48.128;11.592;2022-12-11T00:22:45;18.57;;;7.70;;
2620;SDS011;1320;48.128;11.592;2022-12-11T00:25:10;16.97;;;6.17;;
2620;SDS011;1320;48.128;11.592;2022-12-11T00:27:36;21.37;;;8.07;;
2620;SDS011;1320;48.128;11.592;2022-12-11T00:30:02;11.20;;;8.57;;
2620;SDS011;1320;48.128;11.592;2022-12-11T00:32:29;5.88;;;4.95;;
2620;SDS011;1320;48.128;11.592;2022-12-11T00:34:55;13.88;;;7.10;;
2620;SDS011;1320;48.128;11.592;2022-12-11T00:37:21;13.30;;;8.77;;
2620;SDS011;1320;48.128;11.592;2022-12-11T00:39:47;16.57;;;8.73;;
2620;SDS011;1320;48.128;11.592;2022-12-11T00:42:13;9.97;;;7.43;;
2620;SDS011;1320;48.128;11.592;2022-12-11T00:44:38;10.57;;;5.80;;
2620;SDS011;1320;48.128;11.592;2022-12-11T00:47:05;17.05;;;7.68;;
2620;SDS011;1320;48.128;11.592;2022-12-11T00:49:31;23.27;;;6.80;;
2620;SDS011;1320;48.128;11.592;2022-12-11T00:51:56;7.53;;;6.83;;
2620;SDS011;1320;48.128;11.592;2022-12-11T00:54:22;10.70;;;7.27;;
2620;SDS011;1320;48.128;11.592;2022-12-11T00:56:48;14.43;;;9.17;;
2620;SDS011;1320;48.128;11.592;2022-12-11T00:59:14;8.07;;;5.70;;
2620;SDS011;1320;48.128;11.592;2022-12-11T01:01:40;11.73;;;6.07;;
2620;SDS011;1320;48.128;11.592;2022-12-11T01:04:06;11.70;;;8.00;;
2620;SDS011;1320;48.128;11.592;2022-12-11T01:06:31;9.67;;;6.63;;
2620;SDS011;1320;48.128;11.592;2022-12-11T01:08:57;3.97;;;3.13;;
2620;SDS011;1320;48.128;11.592;2022-12-11T01:11:41;12.65;;;8.52;;
2620;SDS011;1320;48.128;11.592;2022-12-11T01:14:08;13.32;;;7.82;;
2620;SDS011;1320;48.128;11.592;2022-12-11T01:16:35;11.77;;;6.72;;
2620;SDS011;1320;48.128;11.592;2022-12-11T01:19:00;14.40;;;6.90;;
2620;SDS011;1320;48.128;11.592;2022-12-11T01:21:27;6.68;;;3.30;;
2620;SDS011;1320;48.128;11.592;2022-12-11T01:23:53;15.07;;;9.32;;
2620;SDS011;1320;48.128;11.592;2022-12-11T01:26:19;13.03;;;7.87;;
2620;SDS011;1320;48.128;11.592;2022-12-11T01:28:47;8.95;;;7.00;;
2620;SDS011;1320;48.128;11.592;2022-12-11T01:31:15;9.23;;;5.65;;
2620;SDS011;1320;48.128;11.592;2022-12-11T01:33:42;8.50;;;5.95;;
2620;SDS011;1320;48.128;11.592;2022-12-11T01:36:09;10.47;;;6.30;;
2620;SDS011;1320;48.128;11.592;2022-12-11T01:38:36;17.25;;;8.75;;
2620;SDS011;1320;48.128;11.592;2022-12-11T01:41:02;9.70;;;6.10;;
2620;SDS011;1320;48.128;11.592;2022-12-11T01:43:28;12.73;;;5.72;;
2620;SDS011;1320;48.128;11.592;2022-12-11T01:45:54;12.30;;;7.13;;
2620;SDS011;1320;48.128;11.592;2022-12-11T01:48:21;14.07;;;8.00;;
2620;SDS011;1320;48.128;11.592;2022-12-11T01:50:50;14.55;;;7.75;;
2620;SDS011;1320;48.128;11.592;2022-12-11T01:53:20;7.93;;;5.78;;
2620;SDS011;1320;48.128;11.592;2022-12-11T01:55:49;9.02;;;5.50;;
2620;SDS011;1320;48.128;11.592;2022-12-11T01:58:17;8.73;;;4.97;;
2620;SDS011;1320;48.128;11.592;2022-12-11T02:00:44;13.02;;;9.05;;
2620;SDS011;1320;48.128;11.592;2022-12-11T02:03:11;13.75;;;7.82;;
2620;SDS011;1320;48.128;11.592;2022-12-11T02:05:36;10.07;;;5.97;;
2620;SDS011;1320;48.128;11.592;2022-12-11T02:08:02;12.70;;;5.90;;
2620;SDS011;1320;48.128;11.592;2022-12-11T02:13:20;7.25;;;5.60;;
2620;SDS011;1320;48.128;11.592;2022-12-11T02:16:12;8.07;;;4.55;;
2620;SDS011;1320;48.128;11.592;2022-12-11T02:18:51;10.95;;;8.18;;
2620;SDS011;1320;48.128;11.592;2022-12-11T02:21:25;13.57;;;7.88;;
2620;SDS011;1320;48.128;11.592;2022-12-11T02:24:06;7.15;;;5.13;;
2620;SDS011;1320;48.128;11.592;2022-12-11T02:29:36;11.05;;;6.60;;
2620;SDS011;1320;48.128;11.592;2022-12-11T02:32:16;4.60;;;4.05;;
2620;SDS011;1320;48.128;11.592;2022-12-11T02:35:02;9.15;;;5.88;;
2620;SDS011;1320;48.128;11.592;2022-12-11T02:37:42;14.70;;;5.78;;
2620;SDS011;1320;48.128;11.592;2022-12-11T02:40:11;7.65;;;5.88;;
2620;SDS011;1320;48.128;11.592;2022-12-11T02:42:39;5.50;;;2.42;;
2620;SDS011;1320;48.128;11.592;2022-12-11T02:45:07;6.35;;;4.93;;
2620;SDS011;1320;48.128;11.592;2022-12-11T02:47:34;7.03;;;5.63;;
2620;SDS011;1320;48.128;11.592;2022-12-11T02:50:02;10.65;;;5.40;;
2620;SDS011;1320;48.128;11.592;2022-12-11T02:52:36;8.23;;;5.85;;
2620;SDS011;1320;48.128;11.592;2022-12-11T02:55:05;6.45;;;5.80;;
2620;SDS011;1320;48.128;11.592;2022-12-11T02:57:43;10.07;;;8.25;;
2620;SDS011;1320;48.128;11.592;2022-12-11T03:00:12;10.40;;;6.22;;
2620;SDS011;1320;48.128;11.592;2022-12-11T03:02:38;4.93;;;4.47;;
2620;SDS011;1320;48.128;11.592;2022-12-11T03:05:05;12.32;;;6.38;;
2620;SDS011;1320;48.128;11.592;2022-12-11T03:07:32;11.15;;;4.60;;
2620;SDS011;1320;48.128;11.592;2022-12-11T03:10:00;12.02;;;5.43;;
2620;SDS011;1320;48.128;11.592;2022-12-11T03:12:30;4.13;;;3.03;;
2620;SDS011;1320;48.128;11.592;2022-12-11T03:14:58;11.52;;;5.78;;
2620;SDS011;1320;48.128;11.592;2022-12-11T03:23:19;7.95;;;5.10;;
2620;SDS011;1320;48.128;11.592;2022-12-11T03:26:07;8.15;;;4.40;;
2620;SDS011;1320;48.128;11.592;2022-12-11T03:28:47;4.15;;;3.75;;
2620;SDS011;1320;48.128;11.592;2022-12-11T03:31:35;7.93;;;5.63;;
2620;SDS011;1320;48.128;11.592;2022-12-11T03:34:17;10.93;;;5.65;;
2620;SDS011;1320;48.128;11.592;2022-12-11T03:36:47;4.93;;;3.58;;
2620;SDS011;1320;48.128;11.592;2022-12-11T03:39:17;5.78;;;5.15;;
2620;SDS011;1320;48.128;11.592;2022-12-11T03:41:48;8.50;;;5.63;;
2620;SDS011;1320;48.128;11.592;2022-12-11T03:44:15;5.43;;;4.38;;
2620;SDS011;1320;48.128;11.592;2022-12-11T03:46:44;7.05;;;4.18;;
2620;SDS011;1320;48.128;11.592;2022-12-11T03:49:14;5.47;;;3.65;;
2620;SDS011;1320;48.128;11.592;2022-12-11T03:51:42;6.60;;;5.38;;
2620;SDS011;1320;48.128;11.592;2022-12-11T03:54:10;7.35;;;6.65;;
2620;SDS011;1320;48.128;11.592;2022-12-11T03:56:36;7.82;;;4.63;;
2620;SDS011;1320;48.128;11.592;2022-12-11T03:59:03;8.48;;;5.22;;
2620;SDS011;1320;48.128;11.592;2022-12-11T04:01:29;6.53;;;5.30;;
2620;SDS011;1320;48.128;11.592;2022-12-11T04:03:55;11.37;;;5.03;;
2620;SDS011;1320;48.128;11.592;2022-12-11T04:06:20;12.50;;;8.43;;
2620;SDS011;1320;48.128;11.592;2022-12-11T04:08:46;3.30;;;2.97;;
2620;SDS011;1320;48.128;11.592;2022-12-11T04:11:12;7.37;;;4.93;;
2620;SDS011;1320;48.128;11.592;2022-12-11T04:13:56;10.55;;;5.40;;
2620;SDS011;1320;48.128;11.592;2022-12-11T04:16:40;6.72;;;4.55;;
2620;SDS011;1320;48.128;11.592;2022-12-11T04:19:07;11.93;;;6.20;;
2620;SDS011;1320;48.128;11.592;2022-12-11T04:21:52;7.72;;;5.40;;
2620;SDS011;1320;48.128;11.592;2022-12-11T04:24:36;6.30;;;4.63;;
2620;SDS011;1320;48.128;11.592;2022-12-11T04:27:02;7.75;;;6.07;;
2620;SDS011;1320;48.128;11.592;2022-12-11T04:29:28;5.77;;;4.50;;
2620;SDS011;1320;48.128;11.592;2022-12-11T04:31:54;6.03;;;4.13;;
2620;SDS011;1320;48.128;11.592;2022-12-11T04:34:19;5.30;;;4.00;;
2620;SDS011;1320;48.128;11.592;2022-12-11T04:36:45;6.83;;;4.33;;
2620;SDS011;1320;48.128;11.592;2022-12-11T04:39:11;7.40;;;4.37;;
2620;SDS011;1320;48.128;11.592;2022-12-11T04:41:36;12.57;;;5.20;;
2620;SDS011;1320;48.128;11.592;2022-12-11T04:44:03;10.48;;;5.18;;
2620;SDS011;1320;48.128;11.592;2022-12-11T04:46:29;8.23;;;4.60;;
2620;SDS011;1320;48.128;11.592;2022-12-11T04:48:55;5.70;;;4.60;;
2620;SDS011;1320;48.128;11.592;2022-12-11T04:51:21;4.22;;;3.67;;
2620;SDS011;1320;48.128;11.592;2022-12-11T04:53:47;11.43;;;4.70;;
2620;SDS011;1320;48.128;11.592;2022-12-11T04:56:13;4.17;;;3.00;;
2620;SDS011;1320;48.128;11.592;2022-12-11T04:58:40;8.63;;;4.47;;
2620;SDS011;1320;48.128;11.592;2022-12-11T05:01:07;9.90;;;4.32;;
2620;SDS011;1320;48.128;11.592;2022-12-11T05:03:34;10.07;;;5.53;;
2620;SDS011;1320;48.128;11.592;2022-12-11T05:06:00;7.40;;;4.70;;
2620;SDS011;1320;48.128;11.592;2022-12-11T05:08:26;6.17;;;4.00;;
2620;SDS011;1320;48.128;11.592;2022-12-11T05:10:58;5.00;;;2.43;;
2620;SDS011;1320;48.128;11.592;2022-12-11T05:13:28;4.55;;;3.55;;
2620;SDS011;1320;48.128;11.592;2022-12-11T05:15:55;8.27;;;4.25;;
2620;SDS011;1320;48.128;11.592;2022-12-11T05:18:21;9.77;;;3.95;;
2620;SDS011;1320;48.128;11.592;2022-12-11T05:20:54;5.47;;;3.07;;
2620;SDS011;1320;48.128;11.592;2022-12-11T05:23:21;5.18;;;3.95;;
2620;SDS011;1320;48.128;11.592;2022-12-11T05:25:56;6.47;;;4.37;;
2620;SDS011;1320;48.128;11.592;2022-12-11T05:28:25;8.07;;;4.38;;
2620;SDS011;1320;48.128;11.592;2022-12-11T05:30:54;10.10;;;6.13;;
2620;SDS011;1320;48.128;11.592;2022-12-11T05:33:24;5.35;;;4.00;;
2620;SDS011;1320;48.128;11.592;2022-12-11T05:35:50;6.60;;;2.50;;
2620;SDS011;1320;48.128;11.592;2022-12-11T05:38:16;3.30;;;3.03;;
2620;SDS011;1320;48.128;11.592;2022-12-11T05:40:42;6.25;;;4.68;;
2620;SDS011;1320;48.128;11.592;2022-12-11T05:43:08;4.90;;;3.20;;
2620;SDS011;1320;48.128;11.592;2022-12-11T05:45:33;7.00;;;4.17;;
2620;SDS011;1320;48.128;11.592;2022-12-11T05:47:59;4.23;;;3.00;;
2620;SDS011;1320;48.128;11.592;2022-12-11T05:50:25;5.97;;;4.17;;
2620;SDS011;1320;48.128;11.592;2022-12-11T05:52:51;4.63;;;3.77;;
2620;SDS011;1320;48.128;11.592;2022-12-11T05:55:16;5.13;;;3.13;;
2620;SDS011;1320;48.128;11.592;2022-12-11T05:57:42;4.20;;;2.90;;
2620;SDS011;1320;48.128;11.592;2022-12-11T06:00:09;5.18;;;3.78;;
2620;SDS011;1320;48.128;11.592;2022-12-11T06:02:37;7.85;;;4.38;;
2620;SDS011;1320;48.128;11.592;2022-12-11T06:05:02;5.33;;;3.60;;
2620;SDS011;1320;48.128;11.592;2022-12-11T06:07:28;4.97;;;3.40;;
2620;SDS011;1320;48.128;11.592;2022-12-11T06:09:54;11.47;;;4.33;;
2620;SDS011;1320;48.128;11.592;2022-12-11T06:12:19;8.60;;;4.37;;
2620;SDS011;1320;48.128;11.592;2022-12-11T06:14:45;5.50;;;3.97;;
2620;SDS011;1320;48.128;11.592;2022-12-11T06:17:10;3.63;;;3.10;;
2620;SDS011;1320;48.128;11.592;2022-12-11T06:19:36;5.90;;;3.93;;
2620;SDS011;1320;48.128;11.592;2022-12-11T06:22:02;16.63;;;6.27;;
2620;SDS011;1320;48.128;11.592;2022-12-11T06:24:28;5.55;;;3.38;;
2620;SDS011;1320;48.128;11.592;2022-12-11T06:26:53;6.20;;;3.83;;
2620;SDS011;1320;48.128;11.592;2022-12-11T06:29:19;5.07;;;3.90;;
2620;SDS011;1320;48.128;11.592;2022-12-11T06:31:45;4.87;;;4.40;;
2620;SDS011;1320;48.128;11.592;2022-12-11T06:34:11;7.30;;;4.10;;
2620;SDS011;1320;48.128;11.592;2022-12-11T06:36:37;5.45;;;3.17;;
2620;SDS011;1320;48.128;11.592;2022-12-11T06:39:04;10.82;;;5.28;;
2620;SDS011;1320;48.128;11.592;2022-12-11T06:41:29;11.27;;;4.40;;
2620;SDS011;1320;48.128;11.592;2022-12-11T06:43:55;5.73;;;3.93;;
2620;SDS011;1320;48.128;11.592;2022-12-11T06:46:21;6.13;;;3.93;;
2620;SDS011;1320;48.128;11.592;2022-12-11T06:48:47;4.37;;;3.90;;
2620;SDS011;1320;48.128;11.592;2022-12-11T06:51:18;4.97;;;3.47;;
2620;SDS011;1320;48.128;11.592;2022-12-11T06:53:49;5.35;;;3.25;;
2620;SDS011;1320;48.128;11.592;2022-12-11T06:56:17;5.32;;;4.80;;
2620;SDS011;1320;48.128;11.592;2022-12-11T06:58:43;8.53;;;4.80;;
2620;SDS011;1320;48.128;11.592;2022-12-11T07:01:15;9.73;;;7.95;;
2620;SDS011;1320;48.128;11.592;2022-12-11T07:03:43;11.73;;;3.92;;
2620;SDS011;1320;48.128;11.592;2022-12-11T07:06:09;8.85;;;5.15;;
2620;SDS011;1320;48.128;11.592;2022-12-11T07:08:35;8.63;;;6.07;;
2620;SDS011;1320;48.128;11.592;2022-12-11T07:11:04;5.17;;;3.53;;
2620;SDS011;1320;48.128;11.592;2022-12-11T07:13:31;5.70;;;3.83;;
2620;SDS011;1320;48.128;11.592;2022-12-11T07:15:57;6.13;;;4.60;;
2620;SDS011;1320;48.128;11.592;2022-12-11T07:18:25;9.55;;;5.82;;
2620;SDS011;1320;48.128;11.592;2022-12-11T07:20:51;7.82;;;4.32;;
2620;SDS011;1320;48.128;11.592;2022-12-11T07:23:17;8.77;;;4.50;;
2620;SDS011;1320;48.128;11.592;2022-12-11T07:25:43;4.80;;;4.00;;
2620;SDS011;1320;48.128;11.592;2022-12-11T07:28:08;5.57;;;3.43;;
2620;SDS011;1320;48.128;11.592;2022-12-11T07:30:34;7.70;;;5.13;;
2620;SDS011;1320;48.128;11.592;2022-12-11T07:33:02;7.32;;;6.28;;
2620;SDS011;1320;48.128;11.592;2022-12-11T07:35:28;7.33;;;5.23;;
2620;SDS011;1320;48.128;11.592;2022-12-11T07:37:54;6.10;;;3.50;;
2620;SDS011;1320;48.128;11.592;2022-12-11T07:40:19;8.10;;;6.30;;
2620;SDS011;1320;48.128;11.592;2022-12-11T07:42:45;9.53;;;6.40;;
2620;SDS011;1320;48.128;11.592;2022-12-11T07:45:10;8.73;;;6.77;;
2620;SDS011;1320;48.128;11.592;2022-12-11T07:47:36;5.77;;;5.27;;
2620;SDS011;1320;48.128;11.592;2022-12-11T07:50:02;10.73;;;5.93;;
2620;SDS011;1320;48.128;11.592;2022-12-11T07:52:28;8.33;;;5.73;;
2620;SDS011;1320;48.128;11.592;2022-12-11T07:54:53;7.17;;;6.40;;
2620;SDS011;1320;48.128;11.592;2022-12-11T07:57:19;7.53;;;5.20;;
2620;SDS011;1320;48.128;11.592;2022-12-11T07:59:45;8.73;;;4.63;;
2620;SDS011;1320;48.128;11.592;2022-12-11T08:02:10;9.33;;;5.10;;
2620;SDS011;1320;48.128;11.592;2022-12-11T08:04:36;7.20;;;5.23;;
2620;SDS011;1320;48.128;11.592;2022-12-11T08:07:02;9.17;;;3.43;;
2620;SDS011;1320;48.128;11.592;2022-12-11T08:09:28;11.40;;;6.43;;
2620;SDS011;1320;48.128;11.592;2022-12-11T08:11:53;4.60;;;3.40;;
2620;SDS011;1320;48.128;11.592;2022-12-11T08:14:20;9.20;;;6.45;;
2620;SDS011;1320;48.128;11.592;2022-12-11T08:16:46;10.23;;;4.90;;
2620;SDS011;1320;48.128;11.592;2022-12-11T08:19:12;8.80;;;5.60;;
2620;SDS011;1320;48.128;11.592;2022-12-11T08:21:38;9.40;;;7.00;;
2620;SDS011;1320;48.128;11.592;2022-12-11T08:24:04;7.78;;;5.68;;
2620;SDS011;1320;48.128;11.592;2022-12-11T08:26:30;6.60;;;4.70;;
2620;SDS011;1320;48.128;11.592;2022-12-11T08:28:56;15.18;;;7.38;;
2620;SDS011;1320;48.128;11.592;2022-12-11T08:31:22;10.33;;;4.03;;
2620;SDS011;1320;48.128;11.592;2022-12-11T08:33:49;12.05;;;5.45;;
2620;SDS011;1320;48.128;11.592;2022-12-11T08:36:16;13.98;;;7.40;;
2620;SDS011;1320;48.128;11.592;2022-12-11T08:38:44;5.03;;;4.53;;
2620;SDS011;1320;48.128;11.592;2022-12-11T08:43:37;8.82;;;5.45;;
2620;SDS011;1320;48.128;11.592;2022-12-11T08:46:04;8.47;;;5.73;;
2620;SDS011;1320;48.128;11.592;2022-12-11T08:48:31;6.10;;;4.18;;
2620;SDS011;1320;48.128;11.592;2022-12-11T08:50:58;9.65;;;5.38;;
2620;SDS011;1320;48.128;11.592;2022-12-11T08:53:26;7.55;;;3.67;;
2620;SDS011;1320;48.128;11.592;2022-12-11T08:56:08;5.95;;;3.95;;
2620;SDS011;1320;48.128;11.592;2022-12-11T08:58:36;3.88;;;3.58;;
2620;SDS011;1320;48.128;11.592;2022-12-11T09:01:09;6.72;;;5.20;;
2620;SDS011;1320;48.128;11.592;2022-12-11T09:03:37;5.43;;;3.35;;
2620;SDS011;1320;48.128;11.592;2022-12-11T09:06:07;7.88;;;5.00;;
2620;SDS011;1320;48.128;11.592;2022-12-11T09:08:39;8.75;;;4.60;;
2620;SDS011;1320;48.128;11.592;2022-12-11T09:11:06;8.40;;;5.13;;
2620;SDS011;1320;48.128;11.592;2022-12-11T09:13:33;4.90;;;3.10;;
2620;SDS011;1320;48.128;11.592;2022-12-11T09:15:59;3.63;;;3.17;;
2620;SDS011;1320;48.128;11.592;2022-12-11T09:18:27;7.15;;;2.05;;
2620;SDS011;1320;48.128;11.592;2022-12-11T09:21:27;2.60;;;2.10;;
2620;SDS011;1320;48.128;11.592;2022-12-11T09:23:47;8.82;;;4.60;;
2620;SDS011;1320;48.128;11.592;2022-12-11T09:26:16;5.13;;;3.15;;
2620;SDS011;1320;48.128;11.592;2022-12-11T09:28:43;7.45;;;4.75;;
2620;SDS011;1320;48.128;11.592;2022-12-11T09:31:13;4.78;;;3.35;;
2620;SDS011;1320;48.128;11.592;2022-12-11T09:33:40;5.50;;;4.45;;
2620;SDS011;1320;48.128;11.592;2022-12-11T09:36:06;5.97;;;3.10;;
2620;SDS011;1320;48.128;11.592;2022-12-11T09:38:32;10.55;;;3.80;;
2620;SDS011;1320;48.128;11.592;2022-12-11T09:41:00;6.50;;;4.07;;
2620;SDS011;1320;48.128;11.592;2022-12-11T09:43:45;2.22;;;2.10;;
2620;SDS011;1320;48.128;11.592;2022-12-11T09:46:32;5.05;;;4.55;;
2620;SDS011;1320;48.128;11.592;2022-12-11T09:48:59;7.95;;;5.70;;
2620;SDS011;1320;48.128;11.592;2022-12-11T09:51:46;5.55;;;5.15;;
2620;SDS011;1320;48.128;11.592;2022-12-11T09:54:33;4.00;;;3.25;;
2620;SDS011;1320;48.128;11.592;2022-12-11T10:00:04;8.25;;;4.15;;
2620;SDS011;1320;48.128;11.592;2022-12-11T10:05:37;5.60;;;3.90;;
2620;SDS011;1320;48.128;11.592;2022-12-11T10:17:12;2.03;;;1.90;;
2620;SDS011;1320;48.128;11.592;2022-12-11T10:19:44;4.70;;;3.10;;
2620;SDS011;1320;48.128;11.592;2022-12-11T10:22:17;5.30;;;3.77;;
2620;SDS011;1320;48.128;11.592;2022-12-11T10:25:12;4.97;;;2.90;;
2620;SDS011;1320;48.128;11.592;2022-12-11T10:27:44;3.65;;;3.30;;
2620;SDS011;1320;48.128;11.592;2022-12-11T10:30:21;5.93;;;3.07;;
2620;SDS011;1320;48.128;11.592;2022-12-11T10:38:33;4.75;;;3.40;;
2620;SDS011;1320;48.128;11.592;2022-12-11T10:40:57;7.40;;;4.47;;
2620;SDS011;1320;48.128;11.592;2022-12-11T10:43:36;5.53;;;4.05;;
2620;SDS011;1320;48.128;11.592;2022-12-11T10:46:04;5.65;;;4.93;;
2620;SDS011;1320;48.128;11.592;2022-12-11T10:48:31;10.43;;;4.10;;
2620;SDS011;1320;48.128;11.592;2022-12-11T10:50:58;8.45;;;3.65;;
2620;SDS011;1320;48.128;11.592;2022-12-11T10:53:29;8.43;;;5.93;;
2620;SDS011;1320;48.128;11.592;2022-12-11T10:55:56;9.73;;;3.20;;
2620;SDS011;1320;48.128;11.592;2022-12-11T10:58:24;2.15;;;1.85;;
2620;SDS011;1320;48.128;11.592;2022-12-11T11:03:32;7.57;;;3.78;;
2620;SDS011;1320;48.128;11.592;2022-12-11T11:06:01;5.55;;;3.58;;
2620;SDS011;1320;48.128;11.592;2022-12-11T11:08:27;7.40;;;4.25;;
2620;SDS011;1320;48.128;11.592;2022-12-11T11:11:04;12.13;;;5.28;;
2620;SDS011;1320;48.128;11.592;2022-12-11T11:13:32;6.32;;;3.85;;
2620;SDS011;1320;48.128;11.592;2022-12-11T11:16:11;5.17;;;3.43;;
2620;SDS011;1320;48.128;11.592;2022-12-11T11:18:39;4.53;;;2.08;;
2620;SDS011;1320;48.128;11.592;2022-12-11T11:21:06;4.85;;;3.03;;
2620;SDS011;1320;48.128;11.592;2022-12-11T11:23:39;8.40;;;5.00;;
2620;SDS011;1320;48.128;11.592;2022-12-11T11:26:06;5.17;;;4.70;;
2620;SDS011;1320;48.128;11.592;2022-12-11T11:28:34;2.38;;;2.20;;
2620;SDS011;1320;48.128;11.592;2022-12-11T11:33:27;6.87;;;6.17;;
2620;SDS011;1320;48.128;11.592;2022-12-11T11:38:29;6.13;;;3.50;;
2620;SDS011;1320;48.128;11.592;2022-12-11T11:41:15;5.00;;;3.60;;
2620;SDS011;1320;48.128;11.592;2022-12-11T11:43:59;14.20;;;4.40;;
2620;SDS011;1320;48.128;11.592;2022-12-11T11:46:30;3.67;;;3.20;;
2620;SDS011;1320;48.128;11.592;2022-12-11T11:49:16;2.63;;;2.42;;
2620;SDS011;1320;48.128;11.592;2022-12-11T11:52:02;6.63;;;3.40;;
2620;SDS011;1320;48.128;11.592;2022-12-11T12:00:21;8.57;;;3.72;;
2620;SDS011;1320;48.128;11.592;2022-12-11T12:02:50;8.07;;;4.68;;
2620;SDS011;1320;48.128;11.592;2022-12-11T12:05:24;5.22;;;3.25;;
2620;SDS011;1320;48.128;11.592;2022-12-11T12:08:11;3.97;;;2.97;;
2620;SDS011;1320;48.128;11.592;2022-12-11T12:13:41;3.10;;;2.60;;
2620;SDS011;1320;48.128;11.592;2022-12-11T12:16:36;8.15;;;3.55;;
2620;SDS011;1320;48.128;11.592;2022-12-11T12:30:15;3.70;;;3.42;;
2620;SDS011;1320;48.128;11.592;2022-12-11T12:32:56;3.08;;;1.42;;
2620;SDS011;1320;48.128;11.592;2022-12-11T12:35:41;1.83;;;1.73;;
2620;SDS011;1320;48.128;11.592;2022-12-11T12:41:14;5.55;;;2.35;;
2620;SDS011;1320;48.128;11.592;2022-12-11T12:44:03;2.92;;;2.20;;
2620;SDS011;1320;48.128;11.592;2022-12-11T12:46:59;2.35;;;1.95;;
2620;SDS011;1320;48.128;11.592;2022-12-11T12:49:33;3.92;;;2.38;;
2620;SDS011;1320;48.128;11.592;2022-12-11T12:52:02;3.30;;;2.13;;
2620;SDS011;1320;48.128;11.592;2022-12-11T12:54:30;6.57;;;4.45;;
2620;SDS011;1320;48.128;11.592;2022-12-11T12:56:57;5.03;;;2.97;;
2620;SDS011;1320;48.128;11.592;2022-12-11T12:59:26;5.72;;;4.13;;
2620;SDS011;1320;48.128;11.592;2022-12-11T13:01:54;6.80;;;4.35;;
2620;SDS011;1320;48.128;11.592;2022-12-11T13:07:15;7.07;;;6.45;;
2620;SDS011;1320;48.128;11.592;2022-12-11T13:09:54;6.55;;;3.58;;
2620;SDS011;1320;48.128;11.592;2022-12-11T13:12:30;5.25;;;3.90;;
2620;SDS011;1320;48.128;11.592;2022-12-11T13:15:21;9.25;;;3.35;;
2620;SDS011;1320;48.128;11.592;2022-12-11T13:17:53;3.17;;;2.90;;
2620;SDS011;1320;48.128;11.592;2022-12-11T13:20:20;5.55;;;3.80;;
2620;SDS011;1320;48.128;11.592;2022-12-11T13:25:20;5.67;;;4.07;;
2620;SDS011;1320;48.128;11.592;2022-12-11T13:27:46;4.68;;;2.75;;
2620;SDS011;1320;48.128;11.592;2022-12-11T13:32:38;5.70;;;3.43;;
2620;SDS011;1320;48.128;11.592;2022-12-11T13:35:17;6.93;;;3.22;;
2620;SDS011;1320;48.128;11.592;2022-12-11T13:37:44;3.53;;;3.03;;
2620;SDS011;1320;48.128;11.592;2022-12-11T13:45:38;3.92;;;3.15;;
2620;SDS011;1320;48.128;11.592;2022-12-11T13:48:04;3.50;;;3.30;;
2620;SDS011;1320;48.128;11.592;2022-12-11T13:50:46;4.78;;;1.98;;
2620;SDS011;1320;48.128;11.592;2022-12-11T13:53:14;4.75;;;3.35;;
2620;SDS011;1320;48.128;11.592;2022-12-11T13:55:41;3.17;;;2.15;;
2620;SDS011;1320;48.128;11.592;2022-12-11T13:58:20;2.43;;;2.23;;
2620;SDS011;1320;48.128;11.592;2022-12-11T14:00:55;2.08;;;1.45;;
2620;SDS011;1320;48.128;11.592;2022-12-11T14:03:32;3.85;;;1.75;;
2620;SDS011;1320;48.128;11.592;2022-12-11T14:05:58;3.83;;;2.45;;
2620;SDS011;1320;48.128;11.592;2022-12-11T14:08:31;2.92;;;2.60;;
2620;SDS011;1320;48.128;11.592;2022-12-11T14:11:00;4.63;;;2.28;;
2620;SDS011;1320;48.128;11.592;2022-12-11T14:13:30;4.40;;;2.35;;
2620;SDS011;1320;48.128;11.592;2022-12-11T14:15:59;4.95;;;2.83;;
2620;SDS011;1320;48.128;11.592;2022-12-11T14:18:26;4.32;;;3.55;;
2620;SDS011;1320;48.128;11.592;2022-12-11T14:20:54;1.50;;;1.40;;
2620;SDS011;1320;48.128;11.592;2022-12-11T14:23:22;2.72;;;2.35;;
2620;SDS011;1320;48.128;11.592;2022-12-11T14:25:51;7.22;;;2.65;;
2620;SDS011;1320;48.128;11.592;2022-12-11T14:28:18;2.38;;;2.10;;
2620;SDS011;1320;48.128;11.592;2022-12-11T14:30:49;2.70;;;2.50;;
2620;SDS011;1320;48.128;11.592;2022-12-11T14:33:16;2.67;;;1.80;;
2620;SDS011;1320;48.128;11.592;2022-12-11T14:35:44;1.85;;;1.70;;
2620;SDS011;1320;48.128;11.592;2022-12-11T14:38:22;4.05;;;3.58;;
2620;SDS011;1320;48.128;11.592;2022-12-11T14:40:53;5.80;;;3.10;;
2620;SDS011;1320;48.128;11.592;2022-12-11T14:43:25;3.10;;;1.75;;
2620;SDS011;1320;48.128;11.592;2022-12-11T14:45:58;4.25;;;3.00;;
2620;SDS011;1320;48.128;11.592;2022-12-11T14:48:29;2.30;;;2.15;;
2620;SDS011;1320;48.128;11.592;2022-12-11T14:51:09;3.65;;;3.33;;
2620;SDS011;1320;48.128;11.592;2022-12-11T14:53:41;3.22;;;2.92;;
2620;SDS011;1320;48.128;11.592;2022-12-11T14:56:15;2.53;;;1.90;;
2620;SDS011;1320;48.128;11.592;2022-12-11T14:59:18;2.55;;;2.38;;
2620;SDS011;1320;48.128;11.592;2022-12-11T15:01:43;4.63;;;3.20;;
2620;SDS011;1320;48.128;11.592;2022-12-11T15:04:21;2.88;;;2.60;;
2620;SDS011;1320;48.128;11.592;2022-12-11T15:06:50;3.97;;;3.25;;
2620;SDS011;1320;48.128;11.592;2022-12-11T15:11:48;3.00;;;2.78;;
2620;SDS011;1320;48.128;11.592;2022-12-11T15:14:17;2.25;;;2.05;;
2620;SDS011;1320;48.128;11.592;2022-12-11T15:16:43;2.97;;;2.35;;
2620;SDS011;1320;48.128;11.592;2022-12-11T15:19:19;8.13;;;5.15;;
2620;SDS011;1320;48.128;11.592;2022-12-11T15:21:48;6.00;;;3.25;;
2620;SDS011;1320;48.128;11.592;2022-12-11T15:24:25;2.75;;;1.60;;
2620;SDS011;1320;48.128;11.592;2022-12-11T15:26:58;4.20;;;3.85;;
2620;SDS011;1320;48.128;11.592;2022-12-11T15:37:23;5.72;;;3.60;;
2620;SDS011;1320;48.128;11.592;2022-12-11T15:39:55;3.35;;;2.03;;
2620;SDS011;1320;48.128;11.592;2022-12-11T15:42:41;4.00;;;2.85;;
2620;SDS011;1320;48.128;11.592;2022-12-11T15:45:07;6.18;;;4.65;;
2620;SDS011;1320;48.128;11.592;2022-12-11T15:47:41;3.28;;;2.92;;
2620;SDS011;1320;48.128;11.592;2022-12-11T15:50:11;4.38;;;2.85;;
2620;SDS011;1320;48.128;11.592;2022-12-11T15:52:48;2.88;;;2.58;;
2620;SDS011;1320;48.128;11.592;2022-12-11T15:55:16;4.38;;;3.08;;
2620;SDS011;1320;48.128;11.592;2022-12-11T15:57:56;3.33;;;2.47;;
2620;SDS011;1320;48.128;11.592;2022-12-11T16:00:24;2.78;;;2.30;;
2620;SDS011;1320;48.128;11.592;2022-12-11T16:02:52;8.55;;;3.03;;
2620;SDS011;1320;48.128;11.592;2022-12-11T16:05:18;5.35;;;3.17;;
2620;SDS011;1320;48.128;11.592;2022-12-11T16:07:45;3.65;;;3.05;;
2620;SDS011;1320;48.128;11.592;2022-12-11T16:10:16;4.53;;;2.85;;
2620;SDS011;1320;48.128;11.592;2022-12-11T16:12:44;4.25;;;3.00;;
2620;SDS011;1320;48.128;11.592;2022-12-11T16:15:11;3.35;;;3.05;;
2620;SDS011;1320;48.128;11.592;2022-12-11T16:17:37;4.80;;;2.60;;
2620;SDS011;1320;48.128;11.592;2022-12-11T16:20:04;8.63;;;5.55;;
2620;SDS011;1320;48.128;11.592;2022-12-11T16:22:31;7.55;;;4.22;;
2620;SDS011;1320;48.128;11.592;2022-12-11T16:24:56;5.50;;;4.47;;
2620;SDS011;1320;48.128;11.592;2022-12-11T16:27:22;7.07;;;3.93;;
2620;SDS011;1320;48.128;11.592;2022-12-11T16:29:48;4.17;;;3.40;;
2620;SDS011;1320;48.128;11.592;2022-12-11T16:32:14;8.53;;;4.30;;
2620;SDS011;1320;48.128;11.592;2022-12-11T16:34:39;5.33;;;4.17;;
2620;SDS011;1320;48.128;11.592;2022-12-11T16:37:06;5.00;;;3.33;;
2620;SDS011;1320;48.128;11.592;2022-12-11T16:39:32;7.00;;;3.88;;
2620;SDS011;1320;48.128;11.592;2022-12-11T16:41:58;8.73;;;5.07;;